sensor_id;sensor_type;location;lat;lon;timestamp;temperature;humidity
41060;DHT22;26811;53.160;8.202;2024-03-08T00:03:44;2.10;99.90
41060;DHT22;26811;53.160;8.202;2024-03-08T00:08:45;2.10;99.90
41060;DHT22;26811;53.160;8.202;2024-03-08T00:13:45;2.10;99.90
41060;DHT22;26811;53.160;8.202;2024-03-08T00:18:47;2.00;99.90
41060;DHT22;26811;53.160;8.202;2024-03-08T00:23:49;2.00;99.90
41060;DHT22;26811;53.160;8.202;2024-03-08T00:28:50;2.00;99.90
41060;DHT22;26811;53.160;8.202;2024-03-08T00:33:50;1.90;99.90
41060;DHT22;26811;53.160;8.202;2024-03-08T00:38:52;1.90;99.90
41060;DHT22;26811;53.160;8.202;2024-03-08T00:43:53;1.90;99.90
41060;DHT22;26811;53.160;8.202;2024-03-08T00:48:53;1.80;99.90
41060;DHT22;26811;53.160;8.202;2024-03-08T00:53:54;1.80;99.90
41060;DHT22;26811;53.160;8.202;2024-03-08T00:58:54;1.80;99.90
41060;DHT22;26811;53.160;8.202;2024-03-08T01:03:55;1.80;99.90
41060;DHT22;26811;53.160;8.202;2024-03-08T01:08:57;1.80;99.90
41060;DHT22;26811;53.160;8.202;2024-03-08T01:13:57;1.80;99.90
41060;DHT22;26811;53.160;8.202;2024-03-08T01:18:58;1.80;99.90
41060;DHT22;26811;53.160;8.202;2024-03-08T01:23:58;1.80;99.90
41060;DHT22;26811;53.160;8.202;2024-03-08T01:28:59;1.80;99.90
41060;DHT22;26811;53.160;8.202;2024-03-08T01:33:59;1.80;99.90
41060;DHT22;26811;53.160;8.202;2024-03-08T01:39:00;1.80;99.90
41060;DHT22;26811;53.160;8.202;2024-03-08T01:44:01;1.80;99.90
41060;DHT22;26811;53.160;8.202;2024-03-08T01:49:03;1.80;99.90
41060;DHT22;26811;53.160;8.202;2024-03-08T01:54:04;1.80;99.90
41060;DHT22;26811;53.160;8.202;2024-03-08T01:59:05;1.70;99.90
41060;DHT22;26811;53.160;8.202;2024-03-08T02:04:08;1.70;99.90
41060;DHT22;26811;53.160;8.202;2024-03-08T02:09:08;1.70;99.90
41060;DHT22;26811;53.160;8.202;2024-03-08T02:14:09;1.70;99.90
41060;DHT22;26811;53.160;8.202;2024-03-08T02:19:11;1.60;99.90
41060;DHT22;26811;53.160;8.202;2024-03-08T02:24:12;1.60;99.90
41060;DHT22;26811;53.160;8.202;2024-03-08T02:29:13;1.60;99.90
41060;DHT22;26811;53.160;8.202;2024-03-08T02:34:14;1.60;99.90
41060;DHT22;26811;53.160;8.202;2024-03-08T02:39:15;1.60;99.90
41060;DHT22;26811;53.160;8.202;2024-03-08T02:44:16;1.50;99.90
41060;DHT22;26811;53.160;8.202;2024-03-08T02:49:16;1.50;99.90
41060;DHT22;26811;53.160;8.202;2024-03-08T02:54:17;1.50;99.90
41060;DHT22;26811;53.160;8.202;2024-03-08T02:59:17;1.50;99.90
41060;DHT22;26811;53.160;8.202;2024-03-08T03:04:19;1.40;99.90
41060;DHT22;26811;53.160;8.202;2024-03-08T03:09:19;1.40;99.90
41060;DHT22;26811;53.160;8.202;2024-03-08T03:14:24;1.40;99.90
41060;DHT22;26811;53.160;8.202;2024-03-08T03:19:27;1.40;99.90
41060;DHT22;26811;53.160;8.202;2024-03-08T03:24:28;1.30;99.90
41060;DHT22;26811;53.160;8.202;2024-03-08T03:29:29;1.30;99.90
41060;DHT22;26811;53.160;8.202;2024-03-08T03:34:30;1.20;99.90
41060;DHT22;26811;53.160;8.202;2024-03-08T03:39:31;1.20;99.90
41060;DHT22;26811;53.160;8.202;2024-03-08T03:44:34;1.20;99.90
41060;DHT22;26811;53.160;8.202;2024-03-08T03:49:35;1.10;99.90
41060;DHT22;26811;53.160;8.202;2024-03-08T03:54:35;1.10;99.90
41060;DHT22;26811;53.160;8.202;2024-03-08T03:59:36;1.10;99.90
41060;DHT22;26811;53.160;8.202;2024-03-08T04:04:36;1.10;99.90
41060;DHT22;26811;53.160;8.202;2024-03-08T04:09:37;1.00;99.90
41060;DHT22;26811;53.160;8.202;2024-03-08T04:14:42;1.00;99.90
41060;DHT22;26811;53.160;8.202;2024-03-08T04:19:43;1.00;99.90
41060;DHT22;26811;53.160;8.202;2024-03-08T04:24:45;1.00;99.90
41060;DHT22;26811;53.160;8.202;2024-03-08T04:29:46;1.00;99.90
41060;DHT22;26811;53.160;8.202;2024-03-08T04:34:47;1.00;99.90
41060;DHT22;26811;53.160;8.202;2024-03-08T04:39:48;1.00;99.90
41060;DHT22;26811;53.160;8.202;2024-03-08T04:44:48;1.00;99.90
41060;DHT22;26811;53.160;8.202;2024-03-08T04:49:49;1.00;99.90
41060;DHT22;26811;53.160;8.202;2024-03-08T04:54:51;0.90;99.90
41060;DHT22;26811;53.160;8.202;2024-03-08T04:59:52;1.00;99.90
41060;DHT22;26811;53.160;8.202;2024-03-08T05:04:52;1.00;99.90
41060;DHT22;26811;53.160;8.202;2024-03-08T05:09:53;1.00;99.90
41060;DHT22;26811;53.160;8.202;2024-03-08T05:14:53;0.90;99.90
41060;DHT22;26811;53.160;8.202;2024-03-08T05:19:54;0.90;99.90
41060;DHT22;26811;53.160;8.202;2024-03-08T05:24:54;0.90;99.90
41060;DHT22;26811;53.160;8.202;2024-03-08T05:29:55;0.90;99.90
41060;DHT22;26811;53.160;8.202;2024-03-08T05:34:56;0.90;99.90
41060;DHT22;26811;53.160;8.202;2024-03-08T05:39:56;0.80;99.90
41060;DHT22;26811;53.160;8.202;2024-03-08T05:44:57;0.80;99.90
41060;DHT22;26811;53.160;8.202;2024-03-08T05:49:59;0.80;99.90
41060;DHT22;26811;53.160;8.202;2024-03-08T05:54:59;0.80;99.90
41060;DHT22;26811;53.160;8.202;2024-03-08T06:00:00;0.80;99.90
41060;DHT22;26811;53.160;8.202;2024-03-08T06:05:01;0.80;99.90
41060;DHT22;26811;53.160;8.202;2024-03-08T06:10:02;0.80;99.90
41060;DHT22;26811;53.160;8.202;2024-03-08T06:15:04;0.80;99.90
41060;DHT22;26811;53.160;8.202;2024-03-08T06:20:05;0.80;99.90
41060;DHT22;26811;53.160;8.202;2024-03-08T06:25:11;0.90;99.90
41060;DHT22;26811;53.160;8.202;2024-03-08T06:30:14;0.90;99.90
41060;DHT22;26811;53.160;8.202;2024-03-08T06:35:16;1.00;99.90
41060;DHT22;26811;53.160;8.202;2024-03-08T06:40:16;1.00;99.90
41060;DHT22;26811;53.160;8.202;2024-03-08T06:45:17;1.00;99.90
41060;DHT22;26811;53.160;8.202;2024-03-08T06:50:21;1.10;99.90
41060;DHT22;26811;53.160;8.202;2024-03-08T06:55:21;1.10;99.90
41060;DHT22;26811;53.160;8.202;2024-03-08T07:00:22;1.20;99.90
41060;DHT22;26811;53.160;8.202;2024-03-08T07:05:28;1.30;99.90
41060;DHT22;26811;53.160;8.202;2024-03-08T07:10:28;1.40;99.90
41060;DHT22;26811;53.160;8.202;2024-03-08T07:15:29;1.50;99.90
41060;DHT22;26811;53.160;8.202;2024-03-08T07:20:29;1.60;99.90
41060;DHT22;26811;53.160;8.202;2024-03-08T07:25:30;1.70;99.90
41060;DHT22;26811;53.160;8.202;2024-03-08T07:30:31;1.80;99.90
41060;DHT22;26811;53.160;8.202;2024-03-08T07:35:54;1.90;99.90
41060;DHT22;26811;53.160;8.202;2024-03-08T07:40:55;2.10;99.90
41060;DHT22;26811;53.160;8.202;2024-03-08T07:45:57;2.20;99.90
41060;DHT22;26811;53.160;8.202;2024-03-08T07:51:00;2.50;99.90
41060;DHT22;26811;53.160;8.202;2024-03-08T07:56:01;3.00;99.90
41060;DHT22;26811;53.160;8.202;2024-03-08T08:01:01;3.40;99.90
41060;DHT22;26811;53.160;8.202;2024-03-08T08:06:02;3.80;99.90
41060;DHT22;26811;53.160;8.202;2024-03-08T08:11:06;4.30;99.90
41060;DHT22;26811;53.160;8.202;2024-03-08T08:16:06;4.80;99.90
41060;DHT22;26811;53.160;8.202;2024-03-08T08:21:10;4.90;99.90
41060;DHT22;26811;53.160;8.202;2024-03-08T08:26:11;4.90;99.90
41060;DHT22;26811;53.160;8.202;2024-03-08T08:31:11;5.00;99.90
41060;DHT22;26811;53.160;8.202;2024-03-08T08:36:13;5.20;99.90
41060;DHT22;26811;53.160;8.202;2024-03-08T08:41:14;5.20;99.90
41060;DHT22;26811;53.160;8.202;2024-03-08T08:46:17;5.20;99.90
41060;DHT22;26811;53.160;8.202;2024-03-08T08:51:18;5.30;99.90
41060;DHT22;26811;53.160;8.202;2024-03-08T08:56:18;5.60;99.90
41060;DHT22;26811;53.160;8.202;2024-03-08T09:01:20;5.80;99.90
41060;DHT22;26811;53.160;8.202;2024-03-08T09:06:20;6.20;99.90
41060;DHT22;26811;53.160;8.202;2024-03-08T09:11:21;6.40;99.90
41060;DHT22;26811;53.160;8.202;2024-03-08T09:16:22;6.50;99.90
41060;DHT22;26811;53.160;8.202;2024-03-08T09:21:23;6.80;99.90
41060;DHT22;26811;53.160;8.202;2024-03-08T09:26:24;6.90;99.90
41060;DHT22;26811;53.160;8.202;2024-03-08T09:31:25;7.00;99.90
41060;DHT22;26811;53.160;8.202;2024-03-08T09:36:26;6.90;99.90
41060;DHT22;26811;53.160;8.202;2024-03-08T09:41:28;6.80;99.90
41060;DHT22;26811;53.160;8.202;2024-03-08T09:46:29;6.80;99.90
41060;DHT22;26811;53.160;8.202;2024-03-08T09:51:34;7.00;99.90
41060;DHT22;26811;53.160;8.202;2024-03-08T09:56:36;6.70;99.90
41060;DHT22;26811;53.160;8.202;2024-03-08T10:01:37;7.20;99.90
41060;DHT22;26811;53.160;8.202;2024-03-08T10:06:41;7.40;99.90
41060;DHT22;26811;53.160;8.202;2024-03-08T10:11:42;7.50;99.90
41060;DHT22;26811;53.160;8.202;2024-03-08T10:16:42;7.40;99.90
41060;DHT22;26811;53.160;8.202;2024-03-08T10:21:50;7.60;99.90
41060;DHT22;26811;53.160;8.202;2024-03-08T10:27:01;7.80;99.90
41060;DHT22;26811;53.160;8.202;2024-03-08T10:32:06;7.90;99.90
41060;DHT22;26811;53.160;8.202;2024-03-08T10:37:07;7.70;99.90
41060;DHT22;26811;53.160;8.202;2024-03-08T10:42:16;7.60;99.90
41060;DHT22;26811;53.160;8.202;2024-03-08T10:47:25;7.80;99.90
41060;DHT22;26811;53.160;8.202;2024-03-08T10:52:26;8.10;99.90
41060;DHT22;26811;53.160;8.202;2024-03-08T10:57:27;7.80;99.90
41060;DHT22;26811;53.160;8.202;2024-03-08T11:02:28;7.90;99.90
41060;DHT22;26811;53.160;8.202;2024-03-08T11:07:34;7.90;99.90
41060;DHT22;26811;53.160;8.202;2024-03-08T11:12:37;7.90;99.90
41060;DHT22;26811;53.160;8.202;2024-03-08T11:22:39;8.10;99.90
41060;DHT22;26811;53.160;8.202;2024-03-08T11:27:53;8.40;99.90
41060;DHT22;26811;53.160;8.202;2024-03-08T11:33:11;8.60;99.90
41060;DHT22;26811;53.160;8.202;2024-03-08T11:38:12;8.60;99.90
41060;DHT22;26811;53.160;8.202;2024-03-08T11:43:13;8.40;99.90
41060;DHT22;26811;53.160;8.202;2024-03-08T11:48:14;8.70;99.90
41060;DHT22;26811;53.160;8.202;2024-03-08T11:53:15;8.60;99.90
41060;DHT22;26811;53.160;8.202;2024-03-08T11:58:15;8.50;99.90
41060;DHT22;26811;53.160;8.202;2024-03-08T12:03:16;8.40;99.90
41060;DHT22;26811;53.160;8.202;2024-03-08T12:08:19;8.50;99.90
41060;DHT22;26811;53.160;8.202;2024-03-08T12:13:19;8.50;99.90
41060;DHT22;26811;53.160;8.202;2024-03-08T12:18:20;8.30;99.90
41060;DHT22;26811;53.160;8.202;2024-03-08T12:23:22;8.20;99.90
41060;DHT22;26811;53.160;8.202;2024-03-08T12:28:26;8.30;99.90
41060;DHT22;26811;53.160;8.202;2024-03-08T12:33:27;8.50;99.90
41060;DHT22;26811;53.160;8.202;2024-03-08T12:38:28;8.60;99.90
41060;DHT22;26811;53.160;8.202;2024-03-08T12:43:28;8.60;99.90
41060;DHT22;26811;53.160;8.202;2024-03-08T12:48:42;8.60;99.90
41060;DHT22;26811;53.160;8.202;2024-03-08T12:53:47;8.60;99.90
41060;DHT22;26811;53.160;8.202;2024-03-08T12:58:48;8.50;99.90
41060;DHT22;26811;53.160;8.202;2024-03-08T13:03:48;8.50;99.90
41060;DHT22;26811;53.160;8.202;2024-03-08T13:08:53;8.40;99.90
41060;DHT22;26811;53.160;8.202;2024-03-08T13:13:54;8.50;99.90
41060;DHT22;26811;53.160;8.202;2024-03-08T13:18:54;8.50;99.90
41060;DHT22;26811;53.160;8.202;2024-03-08T13:23:54;8.60;99.90
41060;DHT22;26811;53.160;8.202;2024-03-08T13:28:55;8.80;99.90
41060;DHT22;26811;53.160;8.202;2024-03-08T13:33:57;9.00;99.30
41060;DHT22;26811;53.160;8.202;2024-03-08T13:39:00;8.80;99.10
41060;DHT22;26811;53.160;8.202;2024-03-08T13:44:00;8.70;99.80
41060;DHT22;26811;53.160;8.202;2024-03-08T13:49:04;8.80;99.60
41060;DHT22;26811;53.160;8.202;2024-03-08T13:54:10;8.90;99.70
41060;DHT22;26811;53.160;8.202;2024-03-08T13:59:33;8.80;99.70
41060;DHT22;26811;53.160;8.202;2024-03-08T14:04:35;8.70;99.90
41060;DHT22;26811;53.160;8.202;2024-03-08T14:09:38;8.80;99.90
41060;DHT22;26811;53.160;8.202;2024-03-08T14:14:56;8.90;99.70
41060;DHT22;26811;53.160;8.202;2024-03-08T14:43:35;9.00;99.90
41060;DHT22;26811;53.160;8.202;2024-03-08T14:48:43;9.00;99.90
41060;DHT22;26811;53.160;8.202;2024-03-08T14:53:47;9.00;99.90
41060;DHT22;26811;53.160;8.202;2024-03-08T14:58:48;9.00;99.90
41060;DHT22;26811;53.160;8.202;2024-03-08T15:03:51;9.00;99.90
41060;DHT22;26811;53.160;8.202;2024-03-08T15:08:52;9.00;99.90
41060;DHT22;26811;53.160;8.202;2024-03-08T15:13:53;9.00;99.90
41060;DHT22;26811;53.160;8.202;2024-03-08T15:18:53;9.00;99.90
41060;DHT22;26811;53.160;8.202;2024-03-08T15:23:55;8.90;99.90
41060;DHT22;26811;53.160;8.202;2024-03-08T15:28:59;9.00;99.90
41060;DHT22;26811;53.160;8.202;2024-03-08T15:34:10;8.90;99.90
41060;DHT22;26811;53.160;8.202;2024-03-08T15:39:11;8.80;99.90
41060;DHT22;26811;53.160;8.202;2024-03-08T15:44:12;8.70;99.90
41060;DHT22;26811;53.160;8.202;2024-03-08T15:49:14;8.60;99.90
41060;DHT22;26811;53.160;8.202;2024-03-08T15:54:14;8.50;99.90
41060;DHT22;26811;53.160;8.202;2024-03-08T15:59:15;8.50;99.90
41060;DHT22;26811;53.160;8.202;2024-03-08T16:04:17;8.40;99.90
41060;DHT22;26811;53.160;8.202;2024-03-08T16:09:17;8.30;99.90
41060;DHT22;26811;53.160;8.202;2024-03-08T16:14:18;8.30;99.90
41060;DHT22;26811;53.160;8.202;2024-03-08T16:19:20;8.20;99.90
41060;DHT22;26811;53.160;8.202;2024-03-08T16:24:23;8.20;99.90
41060;DHT22;26811;53.160;8.202;2024-03-08T16:29:24;8.10;99.90
41060;DHT22;26811;53.160;8.202;2024-03-08T16:34:24;8.00;99.90
41060;DHT22;26811;53.160;8.202;2024-03-08T16:39:25;7.90;99.90
41060;DHT22;26811;53.160;8.202;2024-03-08T16:44:29;7.90;99.90
41060;DHT22;26811;53.160;8.202;2024-03-08T16:49:30;7.80;99.90
41060;DHT22;26811;53.160;8.202;2024-03-08T16:54:31;7.70;99.90
41060;DHT22;26811;53.160;8.202;2024-03-08T16:59:33;7.70;99.90
41060;DHT22;26811;53.160;8.202;2024-03-08T17:04:33;7.60;99.90
41060;DHT22;26811;53.160;8.202;2024-03-08T17:09:34;7.50;99.90
41060;DHT22;26811;53.160;8.202;2024-03-08T17:14:35;7.40;99.90
41060;DHT22;26811;53.160;8.202;2024-03-08T17:19:38;7.40;99.90
41060;DHT22;26811;53.160;8.202;2024-03-08T17:24:40;7.30;99.90
41060;DHT22;26811;53.160;8.202;2024-03-08T17:29:40;7.20;99.90
41060;DHT22;26811;53.160;8.202;2024-03-08T17:34:41;7.10;99.90
41060;DHT22;26811;53.160;8.202;2024-03-08T17:39:42;7.00;99.90
41060;DHT22;26811;53.160;8.202;2024-03-08T17:44:43;6.90;99.90
41060;DHT22;26811;53.160;8.202;2024-03-08T17:49:45;6.80;99.90
41060;DHT22;26811;53.160;8.202;2024-03-08T18:00:30;6.70;99.90
41060;DHT22;26811;53.160;8.202;2024-03-08T18:06:32;6.70;99.90
41060;DHT22;26811;53.160;8.202;2024-03-08T18:11:51;6.60;99.90
41060;DHT22;26811;53.160;8.202;2024-03-08T18:16:55;6.50;99.90
41060;DHT22;26811;53.160;8.202;2024-03-08T18:22:08;6.40;99.90
41060;DHT22;26811;53.160;8.202;2024-03-08T18:27:20;6.30;99.90
41060;DHT22;26811;53.160;8.202;2024-03-08T18:32:22;6.20;99.90
41060;DHT22;26811;53.160;8.202;2024-03-08T18:37:28;6.20;99.90
41060;DHT22;26811;53.160;8.202;2024-03-08T18:42:28;6.10;99.90
41060;DHT22;26811;53.160;8.202;2024-03-08T18:47:30;6.00;99.90
41060;DHT22;26811;53.160;8.202;2024-03-08T18:58:25;5.90;99.90
41060;DHT22;26811;53.160;8.202;2024-03-08T19:03:50;5.90;99.90
41060;DHT22;26811;53.160;8.202;2024-03-08T19:09:10;5.90;99.90
41060;DHT22;26811;53.160;8.202;2024-03-08T19:19:53;5.80;99.90
41060;DHT22;26811;53.160;8.202;2024-03-08T19:30:42;5.70;99.90
41060;DHT22;26811;53.160;8.202;2024-03-08T19:35:43;5.70;99.90
41060;DHT22;26811;53.160;8.202;2024-03-08T19:40:43;5.60;99.90
41060;DHT22;26811;53.160;8.202;2024-03-08T19:45:44;5.60;99.90
41060;DHT22;26811;53.160;8.202;2024-03-08T19:50:45;5.50;99.90
41060;DHT22;26811;53.160;8.202;2024-03-08T19:55:47;5.50;99.90
41060;DHT22;26811;53.160;8.202;2024-03-08T20:00:49;5.40;99.90
41060;DHT22;26811;53.160;8.202;2024-03-08T20:05:51;5.40;99.90
41060;DHT22;26811;53.160;8.202;2024-03-08T20:10:55;5.40;99.90
41060;DHT22;26811;53.160;8.202;2024-03-08T20:15:56;5.30;99.90
41060;DHT22;26811;53.160;8.202;2024-03-08T20:20:57;5.20;99.90
41060;DHT22;26811;53.160;8.202;2024-03-08T20:25:58;5.20;99.90
41060;DHT22;26811;53.160;8.202;2024-03-08T20:30:59;5.10;99.90
41060;DHT22;26811;53.160;8.202;2024-03-08T20:35:59;5.00;99.90
41060;DHT22;26811;53.160;8.202;2024-03-08T20:41:07;5.00;99.90
41060;DHT22;26811;53.160;8.202;2024-03-08T20:46:09;4.90;99.90
41060;DHT22;26811;53.160;8.202;2024-03-08T20:51:11;4.80;99.90
41060;DHT22;26811;53.160;8.202;2024-03-08T20:56:13;4.80;99.90
41060;DHT22;26811;53.160;8.202;2024-03-08T21:01:15;4.70;99.90
41060;DHT22;26811;53.160;8.202;2024-03-08T21:06:16;4.70;99.90
41060;DHT22;26811;53.160;8.202;2024-03-08T21:11:18;4.70;99.90
41060;DHT22;26811;53.160;8.202;2024-03-08T21:16:18;4.70;99.90
41060;DHT22;26811;53.160;8.202;2024-03-08T21:21:19;4.60;99.90
41060;DHT22;26811;53.160;8.202;2024-03-08T21:26:20;4.60;99.90
41060;DHT22;26811;53.160;8.202;2024-03-08T21:31:20;4.50;99.90
41060;DHT22;26811;53.160;8.202;2024-03-08T21:36:23;4.60;99.90
41060;DHT22;26811;53.160;8.202;2024-03-08T21:41:24;4.60;99.90
41060;DHT22;26811;53.160;8.202;2024-03-08T21:46:25;4.50;99.90
41060;DHT22;26811;53.160;8.202;2024-03-08T21:51:25;4.50;99.90
41060;DHT22;26811;53.160;8.202;2024-03-08T21:56:26;4.50;99.90
41060;DHT22;26811;53.160;8.202;2024-03-08T22:01:26;4.50;99.90
41060;DHT22;26811;53.160;8.202;2024-03-08T22:06:27;4.50;99.90
41060;DHT22;26811;53.160;8.202;2024-03-08T22:11:27;4.50;99.90
41060;DHT22;26811;53.160;8.202;2024-03-08T22:16:28;4.50;99.90
41060;DHT22;26811;53.160;8.202;2024-03-08T22:21:33;4.40;99.90
41060;DHT22;26811;53.160;8.202;2024-03-08T22:26:34;4.40;99.90
41060;DHT22;26811;53.160;8.202;2024-03-08T22:31:35;4.40;99.90
41060;DHT22;26811;53.160;8.202;2024-03-08T22:36:39;4.30;99.90
41060;DHT22;26811;53.160;8.202;2024-03-08T22:41:40;4.30;99.90
41060;DHT22;26811;53.160;8.202;2024-03-08T22:46:41;4.30;99.90
41060;DHT22;26811;53.160;8.202;2024-03-08T22:51:41;4.20;99.90
41060;DHT22;26811;53.160;8.202;2024-03-08T22:56:42;4.20;99.90
41060;DHT22;26811;53.160;8.202;2024-03-08T23:01:43;4.10;99.90
41060;DHT22;26811;53.160;8.202;2024-03-08T23:06:45;4.10;99.90
41060;DHT22;26811;53.160;8.202;2024-03-08T23:11:46;4.10;99.90
41060;DHT22;26811;53.160;8.202;2024-03-08T23:16:47;4.00;99.90
41060;DHT22;26811;53.160;8.202;2024-03-08T23:21:50;4.00;99.90
41060;DHT22;26811;53.160;8.202;2024-03-08T23:26:50;4.00;99.90
41060;DHT22;26811;53.160;8.202;2024-03-08T23:31:52;4.00;99.90
41060;DHT22;26811;53.160;8.202;2024-03-08T23:36:55;4.00;99.90
41060;DHT22;26811;53.160;8.202;2024-03-08T23:41:55;4.00;99.90
41060;DHT22;26811;53.160;8.202;2024-03-08T23:46:56;4.00;99.90
41060;DHT22;26811;53.160;8.202;2024-03-08T23:51:56;3.90;99.90
41060;DHT22;26811;53.160;8.202;2024-03-08T23:56:57;3.80;99.90
